sensor_id;sensor_type;location;lat;lon;timestamp;P1;durP1;ratioP1;P2;durP2;ratioP2
58950;SDS011;44730;53.158;6.398;2023-02-28T00:00:20;6.55;;;3.67;;
58950;SDS011;44730;53.158;6.398;2023-02-28T00:02:48;5.28;;;3.35;;
58950;SDS011;44730;53.158;6.398;2023-02-28T00:05:15;6.97;;;4.03;;
58950;SDS011;44730;53.158;6.398;2023-02-28T00:07:42;7.15;;;3.50;;
58950;SDS011;44730;53.158;6.398;2023-02-28T00:10:09;7.25;;;3.30;;
58950;SDS011;44730;53.158;6.398;2023-02-28T00:12:37;7.25;;;3.38;;
58950;SDS011;44730;53.158;6.398;2023-02-28T00:15:07;5.80;;;3.65;;
58950;SDS011;44730;53.158;6.398;2023-02-28T00:17:34;6.25;;;3.28;;
58950;SDS011;44730;53.158;6.398;2023-02-28T00:20:01;5.88;;;3.67;;
58950;SDS011;44730;53.158;6.398;2023-02-28T00:22:41;6.55;;;3.72;;
58950;SDS011;44730;53.158;6.398;2023-02-28T00:25:10;6.90;;;3.88;;
58950;SDS011;44730;53.158;6.398;2023-02-28T00:27:37;7.55;;;4.53;;
58950;SDS011;44730;53.158;6.398;2023-02-28T00:30:05;8.18;;;4.03;;
58950;SDS011;44730;53.158;6.398;2023-02-28T00:32:32;5.15;;;4.20;;
58950;SDS011;44730;53.158;6.398;2023-02-28T00:34:59;4.63;;;3.60;;
58950;SDS011;44730;53.158;6.398;2023-02-28T00:37:25;7.43;;;3.70;;
58950;SDS011;44730;53.158;6.398;2023-02-28T00:39:52;7.57;;;3.75;;
58950;SDS011;44730;53.158;6.398;2023-02-28T00:42:18;7.57;;;3.92;;
58950;SDS011;44730;53.158;6.398;2023-02-28T00:44:44;9.35;;;4.00;;
58950;SDS011;44730;53.158;6.398;2023-02-28T00:47:11;7.25;;;3.72;;
58950;SDS011;44730;53.158;6.398;2023-02-28T00:49:37;6.10;;;3.75;;
58950;SDS011;44730;53.158;6.398;2023-02-28T00:52:02;7.72;;;4.03;;
58950;SDS011;44730;53.158;6.398;2023-02-28T00:54:28;6.82;;;3.78;;
58950;SDS011;44730;53.158;6.398;2023-02-28T00:56:54;7.35;;;3.55;;
58950;SDS011;44730;53.158;6.398;2023-02-28T00:59:20;5.43;;;3.88;;
58950;SDS011;44730;53.158;6.398;2023-02-28T01:01:46;8.23;;;3.63;;
58950;SDS011;44730;53.158;6.398;2023-02-28T01:04:13;6.15;;;3.90;;
58950;SDS011;44730;53.158;6.398;2023-02-28T01:06:39;8.40;;;4.60;;
58950;SDS011;44730;53.158;6.398;2023-02-28T01:09:06;8.63;;;3.83;;
58950;SDS011;44730;53.158;6.398;2023-02-28T01:11:33;7.40;;;3.92;;
58950;SDS011;44730;53.158;6.398;2023-02-28T01:13:59;4.57;;;3.13;;
58950;SDS011;44730;53.158;6.398;2023-02-28T01:16:26;7.70;;;4.00;;
58950;SDS011;44730;53.158;6.398;2023-02-28T01:18:52;6.80;;;3.97;;
58950;SDS011;44730;53.158;6.398;2023-02-28T01:21:19;6.13;;;3.40;;
58950;SDS011;44730;53.158;6.398;2023-02-28T01:23:46;7.93;;;4.50;;
58950;SDS011;44730;53.158;6.398;2023-02-28T01:26:14;6.38;;;4.00;;
58950;SDS011;44730;53.158;6.398;2023-02-28T01:28:42;6.25;;;3.85;;
58950;SDS011;44730;53.158;6.398;2023-02-28T01:31:08;7.00;;;3.75;;
58950;SDS011;44730;53.158;6.398;2023-02-28T01:33:35;8.25;;;3.95;;
58950;SDS011;44730;53.158;6.398;2023-02-28T01:38:32;7.57;;;4.43;;
58950;SDS011;44730;53.158;6.398;2023-02-28T01:40:58;11.75;;;4.47;;
58950;SDS011;44730;53.158;6.398;2023-02-28T01:43:26;9.82;;;4.35;;
58950;SDS011;44730;53.158;6.398;2023-02-28T01:45:56;7.18;;;4.03;;
58950;SDS011;44730;53.158;6.398;2023-02-28T01:48:25;7.55;;;4.32;;
58950;SDS011;44730;53.158;6.398;2023-02-28T01:51:05;6.50;;;4.22;;
58950;SDS011;44730;53.158;6.398;2023-02-28T01:53:37;6.95;;;3.83;;
58950;SDS011;44730;53.158;6.398;2023-02-28T01:56:09;7.88;;;4.32;;
58950;SDS011;44730;53.158;6.398;2023-02-28T01:58:40;9.20;;;4.15;;
58950;SDS011;44730;53.158;6.398;2023-02-28T02:01:06;7.28;;;4.25;;
58950;SDS011;44730;53.158;6.398;2023-02-28T02:03:36;7.22;;;4.60;;
58950;SDS011;44730;53.158;6.398;2023-02-28T02:06:02;6.32;;;4.45;;
58950;SDS011;44730;53.158;6.398;2023-02-28T02:08:28;6.75;;;4.50;;
58950;SDS011;44730;53.158;6.398;2023-02-28T02:10:55;10.60;;;4.28;;
58950;SDS011;44730;53.158;6.398;2023-02-28T02:13:38;5.82;;;3.83;;
58950;SDS011;44730;53.158;6.398;2023-02-28T02:25:00;6.57;;;3.42;;
58950;SDS011;44730;53.158;6.398;2023-02-28T02:38:43;7.25;;;4.65;;
58950;SDS011;44730;53.158;6.398;2023-02-28T02:41:22;7.55;;;4.03;;
58950;SDS011;44730;53.158;6.398;2023-02-28T02:43:53;5.78;;;4.72;;
58950;SDS011;44730;53.158;6.398;2023-02-28T02:46:45;6.13;;;4.07;;
58950;SDS011;44730;53.158;6.398;2023-02-28T02:49:19;6.22;;;4.20;;
58950;SDS011;44730;53.158;6.398;2023-02-28T02:51:51;8.55;;;4.35;;
58950;SDS011;44730;53.158;6.398;2023-02-28T02:54:27;7.05;;;4.07;;
58950;SDS011;44730;53.158;6.398;2023-02-28T02:56:57;7.32;;;4.45;;
58950;SDS011;44730;53.158;6.398;2023-02-28T02:59:26;6.90;;;4.82;;
58950;SDS011;44730;53.158;6.398;2023-02-28T03:01:56;8.35;;;4.80;;
58950;SDS011;44730;53.158;6.398;2023-02-28T03:04:26;7.82;;;4.60;;
58950;SDS011;44730;53.158;6.398;2023-02-28T03:06:55;6.47;;;5.03;;
58950;SDS011;44730;53.158;6.398;2023-02-28T03:09:22;8.32;;;4.88;;
58950;SDS011;44730;53.158;6.398;2023-02-28T03:11:48;7.20;;;4.85;;
58950;SDS011;44730;53.158;6.398;2023-02-28T03:23:01;8.50;;;4.82;;
58950;SDS011;44730;53.158;6.398;2023-02-28T03:25:59;8.02;;;5.57;;
58950;SDS011;44730;53.158;6.398;2023-02-28T03:31:08;8.85;;;5.90;;
58950;SDS011;44730;53.158;6.398;2023-02-28T03:34:13;7.45;;;5.93;;
58950;SDS011;44730;53.158;6.398;2023-02-28T03:36:43;8.88;;;5.68;;
58950;SDS011;44730;53.158;6.398;2023-02-28T03:39:16;9.75;;;5.95;;
58950;SDS011;44730;53.158;6.398;2023-02-28T03:41:51;8.73;;;5.68;;
58950;SDS011;44730;53.158;6.398;2023-02-28T03:47:03;11.95;;;6.20;;
58950;SDS011;44730;53.158;6.398;2023-02-28T03:52:51;12.27;;;6.40;;
58950;SDS011;44730;53.158;6.398;2023-02-28T03:55:26;11.00;;;6.93;;
58950;SDS011;44730;53.158;6.398;2023-02-28T03:58:05;17.38;;;7.68;;
58950;SDS011;44730;53.158;6.398;2023-02-28T04:01:43;13.05;;;8.30;;
58950;SDS011;44730;53.158;6.398;2023-02-28T04:03:52;11.68;;;8.23;;
58950;SDS011;44730;53.158;6.398;2023-02-28T04:06:19;13.63;;;8.40;;
58950;SDS011;44730;53.158;6.398;2023-02-28T04:08:48;13.55;;;8.38;;
58950;SDS011;44730;53.158;6.398;2023-02-28T04:11:19;13.02;;;8.35;;
58950;SDS011;44730;53.158;6.398;2023-02-28T04:13:57;11.30;;;8.23;;
58950;SDS011;44730;53.158;6.398;2023-02-28T04:16:23;12.00;;;8.07;;
58950;SDS011;44730;53.158;6.398;2023-02-28T04:18:48;15.20;;;8.52;;
58950;SDS011;44730;53.158;6.398;2023-02-28T04:21:14;12.02;;;8.38;;
58950;SDS011;44730;53.158;6.398;2023-02-28T04:23:40;11.07;;;7.25;;
58950;SDS011;44730;53.158;6.398;2023-02-28T04:26:06;9.70;;;6.85;;
58950;SDS011;44730;53.158;6.398;2023-02-28T04:28:32;8.68;;;6.53;;
58950;SDS011;44730;53.158;6.398;2023-02-28T04:31:02;7.63;;;6.18;;
58950;SDS011;44730;53.158;6.398;2023-02-28T04:33:29;9.30;;;6.93;;
58950;SDS011;44730;53.158;6.398;2023-02-28T04:36:04;9.57;;;6.70;;
58950;SDS011;44730;53.158;6.398;2023-02-28T04:38:37;10.10;;;6.85;;
58950;SDS011;44730;53.158;6.398;2023-02-28T04:41:04;8.85;;;5.95;;
58950;SDS011;44730;53.158;6.398;2023-02-28T04:43:30;9.75;;;6.10;;
58950;SDS011;44730;53.158;6.398;2023-02-28T04:45:57;7.32;;;5.07;;
58950;SDS011;44730;53.158;6.398;2023-02-28T04:48:24;7.32;;;5.38;;
58950;SDS011;44730;53.158;6.398;2023-02-28T04:50:51;7.22;;;5.22;;
58950;SDS011;44730;53.158;6.398;2023-02-28T04:53:17;8.40;;;5.18;;
58950;SDS011;44730;53.158;6.398;2023-02-28T04:55:43;6.78;;;5.10;;
58950;SDS011;44730;53.158;6.398;2023-02-28T04:58:09;7.07;;;5.15;;
58950;SDS011;44730;53.158;6.398;2023-02-28T05:00:35;7.30;;;4.88;;
58950;SDS011;44730;53.158;6.398;2023-02-28T05:03:01;8.93;;;5.07;;
58950;SDS011;44730;53.158;6.398;2023-02-28T05:05:27;6.90;;;5.22;;
58950;SDS011;44730;53.158;6.398;2023-02-28T05:07:53;9.23;;;5.70;;
58950;SDS011;44730;53.158;6.398;2023-02-28T05:10:21;7.22;;;5.35;;
58950;SDS011;44730;53.158;6.398;2023-02-28T05:12:47;8.32;;;5.63;;
58950;SDS011;44730;53.158;6.398;2023-02-28T05:15:13;8.02;;;5.20;;
58950;SDS011;44730;53.158;6.398;2023-02-28T05:17:40;10.00;;;5.07;;
58950;SDS011;44730;53.158;6.398;2023-02-28T05:20:07;8.32;;;5.70;;
58950;SDS011;44730;53.158;6.398;2023-02-28T05:22:42;9.23;;;5.65;;
58950;SDS011;44730;53.158;6.398;2023-02-28T05:25:16;10.73;;;6.00;;
58950;SDS011;44730;53.158;6.398;2023-02-28T05:27:43;10.00;;;6.28;;
58950;SDS011;44730;53.158;6.398;2023-02-28T05:30:09;10.98;;;6.70;;
58950;SDS011;44730;53.158;6.398;2023-02-28T05:32:36;11.30;;;6.72;;
58950;SDS011;44730;53.158;6.398;2023-02-28T05:35:03;10.45;;;6.90;;
58950;SDS011;44730;53.158;6.398;2023-02-28T05:37:29;9.25;;;6.10;;
58950;SDS011;44730;53.158;6.398;2023-02-28T05:39:55;11.15;;;6.47;;
58950;SDS011;44730;53.158;6.398;2023-02-28T05:42:20;10.27;;;6.57;;
58950;SDS011;44730;53.158;6.398;2023-02-28T05:44:46;14.77;;;7.68;;
58950;SDS011;44730;53.158;6.398;2023-02-28T05:47:12;8.60;;;5.93;;
58950;SDS011;44730;53.158;6.398;2023-02-28T05:49:41;9.43;;;7.05;;
58950;SDS011;44730;53.158;6.398;2023-02-28T05:52:07;10.32;;;6.75;;
58950;SDS011;44730;53.158;6.398;2023-02-28T05:54:33;8.93;;;6.20;;
58950;SDS011;44730;53.158;6.398;2023-02-28T05:56:59;9.75;;;6.55;;
58950;SDS011;44730;53.158;6.398;2023-02-28T05:59:25;9.98;;;7.25;;
58950;SDS011;44730;53.158;6.398;2023-02-28T06:01:50;10.63;;;6.50;;
58950;SDS011;44730;53.158;6.398;2023-02-28T06:04:18;9.52;;;6.82;;
58950;SDS011;44730;53.158;6.398;2023-02-28T06:06:48;10.32;;;7.47;;
58950;SDS011;44730;53.158;6.398;2023-02-28T06:09:15;11.48;;;7.03;;
58950;SDS011;44730;53.158;6.398;2023-02-28T06:11:42;12.75;;;7.35;;
58950;SDS011;44730;53.158;6.398;2023-02-28T06:14:19;11.68;;;7.95;;
58950;SDS011;44730;53.158;6.398;2023-02-28T06:16:45;13.73;;;8.50;;
58950;SDS011;44730;53.158;6.398;2023-02-28T06:19:12;12.57;;;8.25;;
58950;SDS011;44730;53.158;6.398;2023-02-28T06:21:38;12.52;;;8.57;;
58950;SDS011;44730;53.158;6.398;2023-02-28T06:24:04;14.60;;;8.68;;
58950;SDS011;44730;53.158;6.398;2023-02-28T06:26:31;12.13;;;8.00;;
58950;SDS011;44730;53.158;6.398;2023-02-28T06:28:57;12.35;;;8.23;;
58950;SDS011;44730;53.158;6.398;2023-02-28T06:31:23;10.93;;;7.97;;
58950;SDS011;44730;53.158;6.398;2023-02-28T06:33:51;11.95;;;7.97;;
58950;SDS011;44730;53.158;6.398;2023-02-28T06:36:17;12.70;;;8.65;;
58950;SDS011;44730;53.158;6.398;2023-02-28T06:38:44;11.57;;;8.00;;
58950;SDS011;44730;53.158;6.398;2023-02-28T06:41:10;10.73;;;7.97;;
58950;SDS011;44730;53.158;6.398;2023-02-28T06:43:38;13.68;;;8.65;;
58950;SDS011;44730;53.158;6.398;2023-02-28T06:46:07;15.00;;;8.43;;
58950;SDS011;44730;53.158;6.398;2023-02-28T06:48:35;13.70;;;8.45;;
58950;SDS011;44730;53.158;6.398;2023-02-28T06:51:04;12.20;;;7.50;;
58950;SDS011;44730;53.158;6.398;2023-02-28T06:53:32;14.77;;;8.80;;
58950;SDS011;44730;53.158;6.398;2023-02-28T06:55:58;10.90;;;8.18;;
58950;SDS011;44730;53.158;6.398;2023-02-28T06:58:24;13.73;;;8.23;;
58950;SDS011;44730;53.158;6.398;2023-02-28T07:00:51;13.38;;;8.80;;
58950;SDS011;44730;53.158;6.398;2023-02-28T07:03:18;12.65;;;8.45;;
58950;SDS011;44730;53.158;6.398;2023-02-28T07:05:44;11.82;;;8.27;;
58950;SDS011;44730;53.158;6.398;2023-02-28T07:08:10;11.35;;;8.25;;
58950;SDS011;44730;53.158;6.398;2023-02-28T07:10:39;15.38;;;9.55;;
58950;SDS011;44730;53.158;6.398;2023-02-28T07:13:06;12.35;;;7.72;;
58950;SDS011;44730;53.158;6.398;2023-02-28T07:15:36;11.80;;;8.40;;
58950;SDS011;44730;53.158;6.398;2023-02-28T07:18:02;12.13;;;7.90;;
58950;SDS011;44730;53.158;6.398;2023-02-28T07:20:28;12.85;;;8.13;;
58950;SDS011;44730;53.158;6.398;2023-02-28T07:22:54;14.40;;;8.88;;
58950;SDS011;44730;53.158;6.398;2023-02-28T07:25:22;13.27;;;8.43;;
58950;SDS011;44730;53.158;6.398;2023-02-28T07:27:48;14.88;;;9.05;;
58950;SDS011;44730;53.158;6.398;2023-02-28T07:30:14;12.52;;;8.02;;
58950;SDS011;44730;53.158;6.398;2023-02-28T07:32:42;12.80;;;9.25;;
58950;SDS011;44730;53.158;6.398;2023-02-28T07:35:08;15.85;;;9.52;;
58950;SDS011;44730;53.158;6.398;2023-02-28T07:37:35;14.02;;;9.38;;
58950;SDS011;44730;53.158;6.398;2023-02-28T07:40:03;14.23;;;9.00;;
58950;SDS011;44730;53.158;6.398;2023-02-28T07:42:39;16.20;;;10.07;;
58950;SDS011;44730;53.158;6.398;2023-02-28T07:45:06;13.82;;;8.95;;
58950;SDS011;44730;53.158;6.398;2023-02-28T07:47:37;11.43;;;8.30;;
58950;SDS011;44730;53.158;6.398;2023-02-28T07:50:04;12.68;;;8.90;;
58950;SDS011;44730;53.158;6.398;2023-02-28T07:52:31;15.85;;;9.95;;
58950;SDS011;44730;53.158;6.398;2023-02-28T07:54:57;14.98;;;8.75;;
58950;SDS011;44730;53.158;6.398;2023-02-28T07:57:23;13.57;;;9.07;;
58950;SDS011;44730;53.158;6.398;2023-02-28T07:59:50;11.40;;;7.05;;
58950;SDS011;44730;53.158;6.398;2023-02-28T08:02:16;11.05;;;7.75;;
58950;SDS011;44730;53.158;6.398;2023-02-28T08:04:43;11.55;;;7.88;;
58950;SDS011;44730;53.158;6.398;2023-02-28T08:07:09;13.95;;;8.85;;
58950;SDS011;44730;53.158;6.398;2023-02-28T08:09:38;12.00;;;8.13;;
58950;SDS011;44730;53.158;6.398;2023-02-28T08:12:05;10.98;;;7.90;;
58950;SDS011;44730;53.158;6.398;2023-02-28T08:14:31;12.10;;;8.18;;
58950;SDS011;44730;53.158;6.398;2023-02-28T08:16:57;12.50;;;7.90;;
58950;SDS011;44730;53.158;6.398;2023-02-28T08:19:23;12.95;;;7.85;;
58950;SDS011;44730;53.158;6.398;2023-02-28T08:21:49;13.07;;;8.10;;
58950;SDS011;44730;53.158;6.398;2023-02-28T08:24:14;13.88;;;9.00;;
58950;SDS011;44730;53.158;6.398;2023-02-28T08:26:40;14.85;;;8.57;;
58950;SDS011;44730;53.158;6.398;2023-02-28T08:29:06;13.57;;;8.88;;
58950;SDS011;44730;53.158;6.398;2023-02-28T08:31:32;14.20;;;9.55;;
58950;SDS011;44730;53.158;6.398;2023-02-28T08:33:58;13.98;;;9.40;;
58950;SDS011;44730;53.158;6.398;2023-02-28T08:36:24;11.93;;;8.07;;
58950;SDS011;44730;53.158;6.398;2023-02-28T08:38:53;10.68;;;7.90;;
58950;SDS011;44730;53.158;6.398;2023-02-28T08:41:20;11.88;;;8.20;;
58950;SDS011;44730;53.158;6.398;2023-02-28T08:43:46;13.00;;;8.68;;
58950;SDS011;44730;53.158;6.398;2023-02-28T08:46:12;12.07;;;7.97;;
58950;SDS011;44730;53.158;6.398;2023-02-28T08:48:39;12.32;;;7.40;;
58950;SDS011;44730;53.158;6.398;2023-02-28T08:51:06;12.90;;;7.72;;
58950;SDS011;44730;53.158;6.398;2023-02-28T08:53:35;12.68;;;7.80;;
58950;SDS011;44730;53.158;6.398;2023-02-28T08:56:04;12.38;;;8.23;;
58950;SDS011;44730;53.158;6.398;2023-02-28T08:58:34;12.48;;;9.05;;
58950;SDS011;44730;53.158;6.398;2023-02-28T09:01:06;10.70;;;7.38;;
58950;SDS011;44730;53.158;6.398;2023-02-28T09:03:35;10.18;;;7.55;;
58950;SDS011;44730;53.158;6.398;2023-02-28T09:06:01;11.38;;;8.07;;
58950;SDS011;44730;53.158;6.398;2023-02-28T09:08:27;11.30;;;7.35;;
58950;SDS011;44730;53.158;6.398;2023-02-28T09:10:58;10.20;;;7.55;;
58950;SDS011;44730;53.158;6.398;2023-02-28T09:13:27;10.98;;;7.47;;
58950;SDS011;44730;53.158;6.398;2023-02-28T09:15:54;11.60;;;8.80;;
58950;SDS011;44730;53.158;6.398;2023-02-28T09:18:22;12.18;;;7.40;;
58950;SDS011;44730;53.158;6.398;2023-02-28T09:20:48;11.23;;;7.28;;
58950;SDS011;44730;53.158;6.398;2023-02-28T09:23:14;11.65;;;7.72;;
58950;SDS011;44730;53.158;6.398;2023-02-28T09:25:47;10.25;;;7.40;;
58950;SDS011;44730;53.158;6.398;2023-02-28T09:28:15;10.18;;;7.18;;
58950;SDS011;44730;53.158;6.398;2023-02-28T09:30:42;10.43;;;7.43;;
58950;SDS011;44730;53.158;6.398;2023-02-28T09:33:10;12.25;;;6.97;;
58950;SDS011;44730;53.158;6.398;2023-02-28T09:35:35;12.18;;;7.47;;
58950;SDS011;44730;53.158;6.398;2023-02-28T09:38:02;10.45;;;7.53;;
58950;SDS011;44730;53.158;6.398;2023-02-28T09:40:29;10.98;;;7.55;;
58950;SDS011;44730;53.158;6.398;2023-02-28T09:42:57;11.45;;;7.53;;
58950;SDS011;44730;53.158;6.398;2023-02-28T09:45:26;9.27;;;6.57;;
58950;SDS011;44730;53.158;6.398;2023-02-28T09:48:23;10.07;;;7.50;;
58950;SDS011;44730;53.158;6.398;2023-02-28T09:50:55;10.43;;;7.10;;
58950;SDS011;44730;53.158;6.398;2023-02-28T09:53:30;12.32;;;7.55;;
58950;SDS011;44730;53.158;6.398;2023-02-28T09:56:09;9.95;;;7.40;;
58950;SDS011;44730;53.158;6.398;2023-02-28T09:58:42;8.82;;;6.82;;
58950;SDS011;44730;53.158;6.398;2023-02-28T10:01:34;9.55;;;7.05;;
58950;SDS011;44730;53.158;6.398;2023-02-28T10:06:56;8.40;;;6.70;;
58950;SDS011;44730;53.158;6.398;2023-02-28T10:09:24;8.07;;;6.45;;
58950;SDS011;44730;53.158;6.398;2023-02-28T10:11:53;7.97;;;6.25;;
58950;SDS011;44730;53.158;6.398;2023-02-28T10:14:26;8.43;;;7.13;;
58950;SDS011;44730;53.158;6.398;2023-02-28T10:16:55;8.25;;;6.03;;
58950;SDS011;44730;53.158;6.398;2023-02-28T10:19:30;6.93;;;6.22;;
58950;SDS011;44730;53.158;6.398;2023-02-28T10:22:01;7.50;;;6.03;;
58950;SDS011;44730;53.158;6.398;2023-02-28T10:24:35;8.10;;;6.45;;
58950;SDS011;44730;53.158;6.398;2023-02-28T10:27:18;8.05;;;6.40;;
58950;SDS011;44730;53.158;6.398;2023-02-28T10:29:46;7.38;;;6.22;;
58950;SDS011;44730;53.158;6.398;2023-02-28T10:32:24;8.05;;;6.65;;
58950;SDS011;44730;53.158;6.398;2023-02-28T10:35:01;6.57;;;5.88;;
58950;SDS011;44730;53.158;6.398;2023-02-28T10:37:44;8.20;;;6.30;;
58950;SDS011;44730;53.158;6.398;2023-02-28T10:42:54;6.05;;;5.07;;
58950;SDS011;44730;53.158;6.398;2023-02-28T10:45:23;6.28;;;5.47;;
58950;SDS011;44730;53.158;6.398;2023-02-28T10:48:04;5.97;;;5.00;;
58950;SDS011;44730;53.158;6.398;2023-02-28T11:01:34;5.65;;;4.28;;
58950;SDS011;44730;53.158;6.398;2023-02-28T11:04:16;4.70;;;4.20;;
58950;SDS011;44730;53.158;6.398;2023-02-28T11:07:03;5.93;;;4.05;;
58950;SDS011;44730;53.158;6.398;2023-02-28T11:09:44;5.65;;;4.28;;
58950;SDS011;44730;53.158;6.398;2023-02-28T11:12:25;5.63;;;4.15;;
58950;SDS011;44730;53.158;6.398;2023-02-28T11:14:58;5.65;;;4.45;;
58950;SDS011;44730;53.158;6.398;2023-02-28T11:17:33;6.10;;;4.70;;
58950;SDS011;44730;53.158;6.398;2023-02-28T11:20:00;5.45;;;4.35;;
58950;SDS011;44730;53.158;6.398;2023-02-28T11:22:30;7.38;;;4.88;;
58950;SDS011;44730;53.158;6.398;2023-02-28T11:25:06;6.28;;;4.30;;
58950;SDS011;44730;53.158;6.398;2023-02-28T11:32:53;5.70;;;4.15;;
58950;SDS011;44730;53.158;6.398;2023-02-28T11:38:05;6.32;;;4.35;;
58950;SDS011;44730;53.158;6.398;2023-02-28T11:40:42;8.23;;;3.90;;
58950;SDS011;44730;53.158;6.398;2023-02-28T11:43:13;5.03;;;3.95;;
58950;SDS011;44730;53.158;6.398;2023-02-28T11:51:33;6.43;;;3.50;;
58950;SDS011;44730;53.158;6.398;2023-02-28T11:54:29;7.18;;;4.00;;
58950;SDS011;44730;53.158;6.398;2023-02-28T12:00:32;5.75;;;3.92;;
58950;SDS011;44730;53.158;6.398;2023-02-28T12:11:11;5.43;;;3.35;;
58950;SDS011;44730;53.158;6.398;2023-02-28T12:22:18;3.60;;;2.90;;
58950;SDS011;44730;53.158;6.398;2023-02-28T12:27:22;5.32;;;3.53;;
58950;SDS011;44730;53.158;6.398;2023-02-28T12:29:58;5.68;;;3.33;;
58950;SDS011;44730;53.158;6.398;2023-02-28T12:32:33;4.03;;;3.63;;
58950;SDS011;44730;53.158;6.398;2023-02-28T12:37:42;3.58;;;3.22;;
58950;SDS011;44730;53.158;6.398;2023-02-28T12:40:15;5.07;;;4.00;;
58950;SDS011;44730;53.158;6.398;2023-02-28T12:42:48;4.47;;;3.70;;
58950;SDS011;44730;53.158;6.398;2023-02-28T12:46:03;6.18;;;3.90;;
58950;SDS011;44730;53.158;6.398;2023-02-28T12:48:10;4.60;;;4.10;;
58950;SDS011;44730;53.158;6.398;2023-02-28T12:50:41;5.32;;;4.05;;
58950;SDS011;44730;53.158;6.398;2023-02-28T12:58:57;4.38;;;3.50;;
58950;SDS011;44730;53.158;6.398;2023-02-28T13:10:04;4.00;;;3.53;;
58950;SDS011;44730;53.158;6.398;2023-02-28T13:12:32;4.97;;;3.70;;
58950;SDS011;44730;53.158;6.398;2023-02-28T13:15:02;4.70;;;3.80;;
58950;SDS011;44730;53.158;6.398;2023-02-28T13:17:38;4.00;;;3.60;;
58950;SDS011;44730;53.158;6.398;2023-02-28T13:20:14;4.35;;;3.47;;
58950;SDS011;44730;53.158;6.398;2023-02-28T13:22:44;4.55;;;3.90;;
58950;SDS011;44730;53.158;6.398;2023-02-28T13:27:49;4.22;;;3.35;;
58950;SDS011;44730;53.158;6.398;2023-02-28T13:33:35;4.60;;;4.10;;
58950;SDS011;44730;53.158;6.398;2023-02-28T13:38:48;4.97;;;4.03;;
58950;SDS011;44730;53.158;6.398;2023-02-28T13:46:30;4.53;;;3.92;;
58950;SDS011;44730;53.158;6.398;2023-02-28T13:48:57;4.90;;;4.03;;
58950;SDS011;44730;53.158;6.398;2023-02-28T13:51:51;5.53;;;3.80;;
58950;SDS011;44730;53.158;6.398;2023-02-28T13:54:24;5.28;;;3.80;;
58950;SDS011;44730;53.158;6.398;2023-02-28T13:57:04;4.65;;;4.20;;
58950;SDS011;44730;53.158;6.398;2023-02-28T13:59:45;5.25;;;4.72;;
58950;SDS011;44730;53.158;6.398;2023-02-28T14:05:19;4.35;;;3.95;;
58950;SDS011;44730;53.158;6.398;2023-02-28T14:07:52;5.10;;;4.53;;
58950;SDS011;44730;53.158;6.398;2023-02-28T14:17:59;5.15;;;4.25;;
58950;SDS011;44730;53.158;6.398;2023-02-28T14:20:27;4.50;;;3.97;;
58950;SDS011;44730;53.158;6.398;2023-02-28T14:23:06;6.10;;;4.63;;
58950;SDS011;44730;53.158;6.398;2023-02-28T14:25:54;8.03;;;4.60;;
58950;SDS011;44730;53.158;6.398;2023-02-28T14:37:20;6.78;;;5.10;;
58950;SDS011;44730;53.158;6.398;2023-02-28T14:39:55;5.78;;;5.18;;
58950;SDS011;44730;53.158;6.398;2023-02-28T14:42:33;7.57;;;5.57;;
58950;SDS011;44730;53.158;6.398;2023-02-28T14:45:01;5.93;;;5.05;;
58950;SDS011;44730;53.158;6.398;2023-02-28T14:47:28;5.47;;;4.75;;
58950;SDS011;44730;53.158;6.398;2023-02-28T14:49:58;5.50;;;4.95;;
58950;SDS011;44730;53.158;6.398;2023-02-28T14:52:27;7.28;;;5.40;;
58950;SDS011;44730;53.158;6.398;2023-02-28T14:55:03;5.55;;;4.95;;
58950;SDS011;44730;53.158;6.398;2023-02-28T14:57:39;8.20;;;5.32;;
58950;SDS011;44730;53.158;6.398;2023-02-28T15:00:11;6.03;;;4.90;;
58950;SDS011;44730;53.158;6.398;2023-02-28T15:02:42;6.47;;;5.30;;
58950;SDS011;44730;53.158;6.398;2023-02-28T15:07:41;6.18;;;5.13;;
58950;SDS011;44730;53.158;6.398;2023-02-28T15:12:53;7.55;;;5.07;;
58950;SDS011;44730;53.158;6.398;2023-02-28T15:15:35;5.82;;;5.18;;
58950;SDS011;44730;53.158;6.398;2023-02-28T15:18:11;6.65;;;4.88;;
58950;SDS011;44730;53.158;6.398;2023-02-28T15:20:57;9.70;;;5.30;;
58950;SDS011;44730;53.158;6.398;2023-02-28T15:23:30;6.25;;;5.20;;
58950;SDS011;44730;53.158;6.398;2023-02-28T15:25:58;6.88;;;5.38;;
58950;SDS011;44730;53.158;6.398;2023-02-28T15:28:25;6.95;;;5.43;;
58950;SDS011;44730;53.158;6.398;2023-02-28T15:30:58;7.28;;;5.43;;
58950;SDS011;44730;53.158;6.398;2023-02-28T15:33:30;7.97;;;5.20;;
58950;SDS011;44730;53.158;6.398;2023-02-28T15:36:05;6.72;;;5.43;;
58950;SDS011;44730;53.158;6.398;2023-02-28T15:38:36;7.45;;;5.43;;
58950;SDS011;44730;53.158;6.398;2023-02-28T15:41:02;7.40;;;5.90;;
58950;SDS011;44730;53.158;6.398;2023-02-28T15:43:36;7.90;;;5.43;;
58950;SDS011;44730;53.158;6.398;2023-02-28T15:46:08;6.75;;;5.28;;
58950;SDS011;44730;53.158;6.398;2023-02-28T15:48:43;7.57;;;5.18;;
58950;SDS011;44730;53.158;6.398;2023-02-28T15:51:20;7.05;;;5.18;;
58950;SDS011;44730;53.158;6.398;2023-02-28T15:53:58;7.38;;;4.85;;
58950;SDS011;44730;53.158;6.398;2023-02-28T15:56:33;7.45;;;5.57;;
58950;SDS011;44730;53.158;6.398;2023-02-28T15:59:07;8.77;;;5.82;;
58950;SDS011;44730;53.158;6.398;2023-02-28T16:01:47;6.88;;;5.53;;
58950;SDS011;44730;53.158;6.398;2023-02-28T16:04:27;8.23;;;6.07;;
58950;SDS011;44730;53.158;6.398;2023-02-28T16:09:37;7.57;;;5.88;;
58950;SDS011;44730;53.158;6.398;2023-02-28T16:12:04;9.50;;;6.00;;
58950;SDS011;44730;53.158;6.398;2023-02-28T16:14:30;9.10;;;6.60;;
58950;SDS011;44730;53.158;6.398;2023-02-28T16:16:57;7.70;;;6.20;;
58950;SDS011;44730;53.158;6.398;2023-02-28T16:19:29;8.80;;;6.50;;
58950;SDS011;44730;53.158;6.398;2023-02-28T16:21:56;8.40;;;6.18;;
58950;SDS011;44730;53.158;6.398;2023-02-28T16:24:22;8.00;;;6.00;;
58950;SDS011;44730;53.158;6.398;2023-02-28T16:26:48;8.40;;;5.97;;
58950;SDS011;44730;53.158;6.398;2023-02-28T16:29:24;7.72;;;6.25;;
58950;SDS011;44730;53.158;6.398;2023-02-28T16:32:00;14.82;;;7.05;;
58950;SDS011;44730;53.158;6.398;2023-02-28T16:34:26;7.75;;;5.80;;
58950;SDS011;44730;53.158;6.398;2023-02-28T16:36:53;7.50;;;5.90;;
58950;SDS011;44730;53.158;6.398;2023-02-28T16:39:19;7.15;;;5.57;;
58950;SDS011;44730;53.158;6.398;2023-02-28T16:41:46;8.85;;;6.25;;
58950;SDS011;44730;53.158;6.398;2023-02-28T16:44:17;7.55;;;5.90;;
58950;SDS011;44730;53.158;6.398;2023-02-28T16:46:57;9.88;;;6.40;;
58950;SDS011;44730;53.158;6.398;2023-02-28T16:49:26;8.38;;;6.00;;
58950;SDS011;44730;53.158;6.398;2023-02-28T16:51:52;8.40;;;5.93;;
58950;SDS011;44730;53.158;6.398;2023-02-28T16:54:18;7.70;;;6.18;;
58950;SDS011;44730;53.158;6.398;2023-02-28T16:56:47;12.60;;;6.63;;
58950;SDS011;44730;53.158;6.398;2023-02-28T16:59:21;7.82;;;6.63;;
58950;SDS011;44730;53.158;6.398;2023-02-28T17:01:48;10.05;;;7.30;;
58950;SDS011;44730;53.158;6.398;2023-02-28T17:04:15;8.88;;;6.80;;
58950;SDS011;44730;53.158;6.398;2023-02-28T17:06:41;8.88;;;6.85;;
58950;SDS011;44730;53.158;6.398;2023-02-28T17:09:14;9.50;;;7.40;;
58950;SDS011;44730;53.158;6.398;2023-02-28T17:11:46;8.73;;;6.85;;
58950;SDS011;44730;53.158;6.398;2023-02-28T17:14:12;10.23;;;7.15;;
58950;SDS011;44730;53.158;6.398;2023-02-28T17:16:38;10.45;;;7.70;;
58950;SDS011;44730;53.158;6.398;2023-02-28T17:19:06;12.27;;;9.00;;
58950;SDS011;44730;53.158;6.398;2023-02-28T17:21:36;11.55;;;7.97;;
58950;SDS011;44730;53.158;6.398;2023-02-28T17:24:02;10.07;;;8.05;;
58950;SDS011;44730;53.158;6.398;2023-02-28T17:26:29;8.85;;;7.20;;
58950;SDS011;44730;53.158;6.398;2023-02-28T17:28:56;13.57;;;9.15;;
58950;SDS011;44730;53.158;6.398;2023-02-28T17:31:22;11.60;;;8.43;;